sensor_id;sensor_type;location;lat;lon;timestamp;P1;durP1;ratioP1;P2;durP2;ratioP2
35418;SDS011;21525;41.240;16.500;2022-12-11T00:00:10;6.50;;;2.03;;
35418;SDS011;21525;41.240;16.500;2022-12-11T00:02:36;4.78;;;2.08;;
35418;SDS011;21525;41.240;16.500;2022-12-11T00:05:02;7.45;;;3.10;;
35418;SDS011;21525;41.240;16.500;2022-12-11T00:07:28;8.10;;;3.33;;
35418;SDS011;21525;41.240;16.500;2022-12-11T00:09:54;7.50;;;2.80;;
35418;SDS011;21525;41.240;16.500;2022-12-11T00:12:20;9.07;;;3.72;;
35418;SDS011;21525;41.240;16.500;2022-12-11T00:14:45;6.28;;;2.75;;
35418;SDS011;21525;41.240;16.500;2022-12-11T00:17:11;7.45;;;2.60;;
35418;SDS011;21525;41.240;16.500;2022-12-11T00:19:37;6.90;;;2.72;;
35418;SDS011;21525;41.240;16.500;2022-12-11T00:22:02;5.85;;;2.50;;
35418;SDS011;21525;41.240;16.500;2022-12-11T00:24:28;5.55;;;2.38;;
35418;SDS011;21525;41.240;16.500;2022-12-11T00:26:54;7.93;;;2.90;;
35418;SDS011;21525;41.240;16.500;2022-12-11T00:29:20;7.45;;;3.08;;
35418;SDS011;21525;41.240;16.500;2022-12-11T00:31:45;7.07;;;2.72;;
35418;SDS011;21525;41.240;16.500;2022-12-11T00:34:11;5.65;;;2.30;;
35418;SDS011;21525;41.240;16.500;2022-12-11T00:36:37;7.28;;;2.33;;
35418;SDS011;21525;41.240;16.500;2022-12-11T00:39:03;5.38;;;2.20;;
35418;SDS011;21525;41.240;16.500;2022-12-11T00:41:30;5.72;;;2.35;;
35418;SDS011;21525;41.240;16.500;2022-12-11T00:43:56;7.40;;;2.13;;
35418;SDS011;21525;41.240;16.500;2022-12-11T00:46:22;5.13;;;2.50;;
35418;SDS011;21525;41.240;16.500;2022-12-11T00:48:48;7.65;;;3.10;;
35418;SDS011;21525;41.240;16.500;2022-12-11T00:51:15;11.02;;;2.70;;
35418;SDS011;21525;41.240;16.500;2022-12-11T00:53:41;7.72;;;3.22;;
35418;SDS011;21525;41.240;16.500;2022-12-11T00:56:11;7.97;;;2.42;;
35418;SDS011;21525;41.240;16.500;2022-12-11T00:58:40;6.75;;;2.65;;
35418;SDS011;21525;41.240;16.500;2022-12-11T01:01:06;6.20;;;2.92;;
35418;SDS011;21525;41.240;16.500;2022-12-11T01:03:33;7.43;;;2.90;;
35418;SDS011;21525;41.240;16.500;2022-12-11T01:05:59;10.48;;;2.92;;
35418;SDS011;21525;41.240;16.500;2022-12-11T01:08:25;7.47;;;3.60;;
35418;SDS011;21525;41.240;16.500;2022-12-11T01:10:51;9.07;;;3.80;;
35418;SDS011;21525;41.240;16.500;2022-12-11T01:13:24;9.98;;;3.55;;
35418;SDS011;21525;41.240;16.500;2022-12-11T01:15:50;10.68;;;4.25;;
35418;SDS011;21525;41.240;16.500;2022-12-11T01:18:16;10.55;;;3.33;;
35418;SDS011;21525;41.240;16.500;2022-12-11T01:20:42;9.20;;;4.05;;
35418;SDS011;21525;41.240;16.500;2022-12-11T01:23:09;10.43;;;3.33;;
35418;SDS011;21525;41.240;16.500;2022-12-11T01:25:37;8.18;;;2.95;;
35418;SDS011;21525;41.240;16.500;2022-12-11T01:28:03;9.90;;;3.22;;
35418;SDS011;21525;41.240;16.500;2022-12-11T01:30:30;10.57;;;3.80;;
35418;SDS011;21525;41.240;16.500;2022-12-11T01:32:56;9.00;;;3.78;;
35418;SDS011;21525;41.240;16.500;2022-12-11T01:35:21;11.60;;;3.67;;
35418;SDS011;21525;41.240;16.500;2022-12-11T01:37:48;9.50;;;4.15;;
35418;SDS011;21525;41.240;16.500;2022-12-11T01:40:15;10.10;;;4.60;;
35418;SDS011;21525;41.240;16.500;2022-12-11T01:42:43;10.35;;;4.32;;
35418;SDS011;21525;41.240;16.500;2022-12-11T01:47:47;8.90;;;4.57;;
35418;SDS011;21525;41.240;16.500;2022-12-11T01:50:15;10.90;;;5.07;;
35418;SDS011;21525;41.240;16.500;2022-12-11T01:52:42;11.68;;;4.78;;
35418;SDS011;21525;41.240;16.500;2022-12-11T01:55:10;11.90;;;5.25;;
35418;SDS011;21525;41.240;16.500;2022-12-11T01:57:37;12.27;;;5.53;;
35418;SDS011;21525;41.240;16.500;2022-12-11T02:00:07;9.73;;;5.22;;
35418;SDS011;21525;41.240;16.500;2022-12-11T02:02:38;9.73;;;5.45;;
35418;SDS011;21525;41.240;16.500;2022-12-11T02:05:05;11.43;;;6.00;;
35418;SDS011;21525;41.240;16.500;2022-12-11T02:07:36;12.02;;;5.75;;
35418;SDS011;21525;41.240;16.500;2022-12-11T02:10:07;14.10;;;6.13;;
35418;SDS011;21525;41.240;16.500;2022-12-11T02:15:15;12.87;;;5.90;;
35418;SDS011;21525;41.240;16.500;2022-12-11T02:20:27;15.07;;;7.22;;
35418;SDS011;21525;41.240;16.500;2022-12-11T02:34:20;13.38;;;7.53;;
35418;SDS011;21525;41.240;16.500;2022-12-11T02:36:53;12.50;;;7.72;;
35418;SDS011;21525;41.240;16.500;2022-12-11T02:39:24;12.77;;;8.15;;
35418;SDS011;21525;41.240;16.500;2022-12-11T02:41:52;10.93;;;7.13;;
35418;SDS011;21525;41.240;16.500;2022-12-11T02:44:23;12.35;;;7.78;;
35418;SDS011;21525;41.240;16.500;2022-12-11T02:46:52;12.00;;;8.65;;
35418;SDS011;21525;41.240;16.500;2022-12-11T02:49:19;10.02;;;7.38;;
35418;SDS011;21525;41.240;16.500;2022-12-11T02:51:47;10.98;;;6.65;;
35418;SDS011;21525;41.240;16.500;2022-12-11T02:54:19;12.07;;;7.15;;
35418;SDS011;21525;41.240;16.500;2022-12-11T02:57:36;11.60;;;6.35;;
35418;SDS011;21525;41.240;16.500;2022-12-11T02:59:45;9.27;;;5.25;;
35418;SDS011;21525;41.240;16.500;2022-12-11T03:02:11;8.50;;;5.65;;
35418;SDS011;21525;41.240;16.500;2022-12-11T03:04:39;7.40;;;4.97;;
35418;SDS011;21525;41.240;16.500;2022-12-11T03:07:09;7.82;;;4.53;;
35418;SDS011;21525;41.240;16.500;2022-12-11T03:09:44;7.25;;;5.13;;
35418;SDS011;21525;41.240;16.500;2022-12-11T03:12:14;8.20;;;4.55;;
35418;SDS011;21525;41.240;16.500;2022-12-11T03:14:43;7.78;;;4.00;;
35418;SDS011;21525;41.240;16.500;2022-12-11T03:17:11;6.43;;;3.95;;
35418;SDS011;21525;41.240;16.500;2022-12-11T03:19:40;7.43;;;4.10;;
35418;SDS011;21525;41.240;16.500;2022-12-11T03:22:30;7.13;;;4.88;;
35418;SDS011;21525;41.240;16.500;2022-12-11T03:25:03;7.75;;;4.53;;
35418;SDS011;21525;41.240;16.500;2022-12-11T03:27:50;7.63;;;5.03;;
35418;SDS011;21525;41.240;16.500;2022-12-11T03:30:22;8.85;;;4.70;;
35418;SDS011;21525;41.240;16.500;2022-12-11T03:33:13;6.88;;;4.53;;
35418;SDS011;21525;41.240;16.500;2022-12-11T03:35:43;9.48;;;4.97;;
35418;SDS011;21525;41.240;16.500;2022-12-11T03:38:35;7.93;;;4.75;;
35418;SDS011;21525;41.240;16.500;2022-12-11T03:41:05;6.95;;;4.53;;
35418;SDS011;21525;41.240;16.500;2022-12-11T03:43:33;10.15;;;4.43;;
35418;SDS011;21525;41.240;16.500;2022-12-11T03:46:01;7.07;;;3.92;;
35418;SDS011;21525;41.240;16.500;2022-12-11T03:48:29;10.30;;;3.97;;
35418;SDS011;21525;41.240;16.500;2022-12-11T03:50:59;7.22;;;4.10;;
35418;SDS011;21525;41.240;16.500;2022-12-11T03:53:28;5.00;;;3.28;;
35418;SDS011;21525;41.240;16.500;2022-12-11T03:55:55;5.78;;;3.45;;
35418;SDS011;21525;41.240;16.500;2022-12-11T04:00:48;6.22;;;3.33;;
35418;SDS011;21525;41.240;16.500;2022-12-11T04:03:14;7.55;;;3.47;;
35418;SDS011;21525;41.240;16.500;2022-12-11T04:05:43;6.30;;;3.10;;
35418;SDS011;21525;41.240;16.500;2022-12-11T04:08:10;6.47;;;3.03;;
35418;SDS011;21525;41.240;16.500;2022-12-11T04:10:37;7.43;;;3.30;;
35418;SDS011;21525;41.240;16.500;2022-12-11T04:13:03;6.40;;;2.85;;
35418;SDS011;21525;41.240;16.500;2022-12-11T04:15:29;5.63;;;3.15;;
35418;SDS011;21525;41.240;16.500;2022-12-11T04:17:55;5.95;;;2.72;;
35418;SDS011;21525;41.240;16.500;2022-12-11T04:20:39;4.43;;;2.63;;
35418;SDS011;21525;41.240;16.500;2022-12-11T04:23:24;4.20;;;2.58;;
35418;SDS011;21525;41.240;16.500;2022-12-11T04:26:09;5.65;;;2.35;;
35418;SDS011;21525;41.240;16.500;2022-12-11T04:28:37;2.35;;;1.90;;
35418;SDS011;21525;41.240;16.500;2022-12-11T04:31:03;2.45;;;1.80;;
35418;SDS011;21525;41.240;16.500;2022-12-11T04:33:29;5.18;;;2.38;;
35418;SDS011;21525;41.240;16.500;2022-12-11T04:35:56;3.72;;;2.50;;
35418;SDS011;21525;41.240;16.500;2022-12-11T04:38:22;4.72;;;2.30;;
35418;SDS011;21525;41.240;16.500;2022-12-11T04:40:48;4.93;;;2.78;;
35418;SDS011;21525;41.240;16.500;2022-12-11T04:43:14;4.78;;;2.17;;
35418;SDS011;21525;41.240;16.500;2022-12-11T04:45:40;5.55;;;2.70;;
35418;SDS011;21525;41.240;16.500;2022-12-11T04:48:06;4.55;;;2.70;;
35418;SDS011;21525;41.240;16.500;2022-12-11T04:50:33;3.80;;;2.80;;
35418;SDS011;21525;41.240;16.500;2022-12-11T04:52:58;4.88;;;2.78;;
35418;SDS011;21525;41.240;16.500;2022-12-11T04:55:24;5.68;;;2.70;;
35418;SDS011;21525;41.240;16.500;2022-12-11T04:57:50;3.15;;;2.55;;
35418;SDS011;21525;41.240;16.500;2022-12-11T05:00:16;3.67;;;2.70;;
35418;SDS011;21525;41.240;16.500;2022-12-11T05:02:41;5.78;;;2.80;;
35418;SDS011;21525;41.240;16.500;2022-12-11T05:05:08;4.05;;;2.67;;
35418;SDS011;21525;41.240;16.500;2022-12-11T05:07:35;6.10;;;3.50;;
35418;SDS011;21525;41.240;16.500;2022-12-11T05:10:02;5.00;;;2.75;;
35418;SDS011;21525;41.240;16.500;2022-12-11T05:12:30;4.68;;;2.90;;
35418;SDS011;21525;41.240;16.500;2022-12-11T05:14:56;4.90;;;3.20;;
35418;SDS011;21525;41.240;16.500;2022-12-11T05:17:22;3.88;;;3.17;;
35418;SDS011;21525;41.240;16.500;2022-12-11T05:19:48;5.28;;;3.53;;
35418;SDS011;21525;41.240;16.500;2022-12-11T05:22:15;3.95;;;2.55;;
35418;SDS011;21525;41.240;16.500;2022-12-11T05:24:42;4.80;;;3.25;;
35418;SDS011;21525;41.240;16.500;2022-12-11T05:27:08;4.65;;;2.58;;
35418;SDS011;21525;41.240;16.500;2022-12-11T05:29:34;9.02;;;3.05;;
35418;SDS011;21525;41.240;16.500;2022-12-11T05:32:00;8.27;;;3.30;;
35418;SDS011;21525;41.240;16.500;2022-12-11T05:34:26;5.93;;;2.60;;
35418;SDS011;21525;41.240;16.500;2022-12-11T05:36:52;5.95;;;3.30;;
35418;SDS011;21525;41.240;16.500;2022-12-11T05:39:18;6.30;;;2.90;;
35418;SDS011;21525;41.240;16.500;2022-12-11T05:41:44;5.35;;;2.90;;
35418;SDS011;21525;41.240;16.500;2022-12-11T05:44:10;4.35;;;3.20;;
35418;SDS011;21525;41.240;16.500;2022-12-11T05:46:37;3.58;;;2.95;;
35418;SDS011;21525;41.240;16.500;2022-12-11T05:49:03;4.80;;;2.90;;
35418;SDS011;21525;41.240;16.500;2022-12-11T05:51:30;4.25;;;3.17;;
35418;SDS011;21525;41.240;16.500;2022-12-11T05:53:58;5.63;;;2.80;;
35418;SDS011;21525;41.240;16.500;2022-12-11T05:56:28;3.45;;;2.10;;
35418;SDS011;21525;41.240;16.500;2022-12-11T05:58:56;3.75;;;2.30;;
35418;SDS011;21525;41.240;16.500;2022-12-11T06:01:27;7.40;;;2.67;;
35418;SDS011;21525;41.240;16.500;2022-12-11T06:03:56;3.85;;;2.03;;
35418;SDS011;21525;41.240;16.500;2022-12-11T06:06:23;2.97;;;1.92;;
35418;SDS011;21525;41.240;16.500;2022-12-11T06:08:51;6.97;;;2.80;;
35418;SDS011;21525;41.240;16.500;2022-12-11T06:11:17;3.53;;;1.80;;
35418;SDS011;21525;41.240;16.500;2022-12-11T06:13:43;4.47;;;1.80;;
35418;SDS011;21525;41.240;16.500;2022-12-11T06:16:09;3.45;;;1.83;;
35418;SDS011;21525;41.240;16.500;2022-12-11T06:18:37;3.63;;;1.88;;
35418;SDS011;21525;41.240;16.500;2022-12-11T06:21:14;3.17;;;1.77;;
35418;SDS011;21525;41.240;16.500;2022-12-11T06:23:42;4.50;;;2.45;;
35418;SDS011;21525;41.240;16.500;2022-12-11T06:26:09;5.18;;;3.05;;
35418;SDS011;21525;41.240;16.500;2022-12-11T06:28:35;5.53;;;3.00;;
35418;SDS011;21525;41.240;16.500;2022-12-11T06:31:02;4.10;;;2.35;;
35418;SDS011;21525;41.240;16.500;2022-12-11T06:33:28;6.63;;;3.00;;
35418;SDS011;21525;41.240;16.500;2022-12-11T06:35:54;3.75;;;3.13;;
35418;SDS011;21525;41.240;16.500;2022-12-11T06:38:21;5.70;;;3.88;;
35418;SDS011;21525;41.240;16.500;2022-12-11T06:40:54;5.50;;;3.25;;
35418;SDS011;21525;41.240;16.500;2022-12-11T06:43:21;7.50;;;4.05;;
35418;SDS011;21525;41.240;16.500;2022-12-11T06:45:47;6.95;;;4.00;;
35418;SDS011;21525;41.240;16.500;2022-12-11T06:48:13;8.43;;;5.03;;
35418;SDS011;21525;41.240;16.500;2022-12-11T06:50:38;9.32;;;4.03;;
35418;SDS011;21525;41.240;16.500;2022-12-11T06:53:04;7.50;;;4.20;;
35418;SDS011;21525;41.240;16.500;2022-12-11T06:55:30;7.82;;;4.30;;
35418;SDS011;21525;41.240;16.500;2022-12-11T06:58:00;6.78;;;3.72;;
35418;SDS011;21525;41.240;16.500;2022-12-11T07:00:26;8.88;;;3.83;;
35418;SDS011;21525;41.240;16.500;2022-12-11T07:02:51;6.85;;;3.40;;
35418;SDS011;21525;41.240;16.500;2022-12-11T07:05:17;7.43;;;3.50;;
35418;SDS011;21525;41.240;16.500;2022-12-11T07:07:43;6.35;;;4.00;;
35418;SDS011;21525;41.240;16.500;2022-12-11T07:10:09;6.97;;;3.95;;
35418;SDS011;21525;41.240;16.500;2022-12-11T07:12:36;6.70;;;3.97;;
35418;SDS011;21525;41.240;16.500;2022-12-11T07:15:02;8.40;;;4.93;;
35418;SDS011;21525;41.240;16.500;2022-12-11T07:17:29;11.32;;;6.88;;
35418;SDS011;21525;41.240;16.500;2022-12-11T07:19:55;12.18;;;8.57;;
35418;SDS011;21525;41.240;16.500;2022-12-11T07:22:21;12.10;;;7.95;;
35418;SDS011;21525;41.240;16.500;2022-12-11T07:24:47;8.18;;;5.10;;
35418;SDS011;21525;41.240;16.500;2022-12-11T07:27:13;7.25;;;3.90;;
35418;SDS011;21525;41.240;16.500;2022-12-11T07:29:38;4.90;;;2.85;;
35418;SDS011;21525;41.240;16.500;2022-12-11T07:32:04;4.10;;;2.30;;
35418;SDS011;21525;41.240;16.500;2022-12-11T07:34:30;7.78;;;2.60;;
35418;SDS011;21525;41.240;16.500;2022-12-11T07:36:56;4.20;;;2.20;;
35418;SDS011;21525;41.240;16.500;2022-12-11T07:39:22;5.97;;;2.88;;
35418;SDS011;21525;41.240;16.500;2022-12-11T07:41:48;3.42;;;2.05;;
35418;SDS011;21525;41.240;16.500;2022-12-11T07:44:17;5.57;;;2.53;;
35418;SDS011;21525;41.240;16.500;2022-12-11T07:46:43;5.88;;;2.90;;
35418;SDS011;21525;41.240;16.500;2022-12-11T07:49:09;7.18;;;3.13;;
35418;SDS011;21525;41.240;16.500;2022-12-11T07:51:35;6.57;;;3.28;;
35418;SDS011;21525;41.240;16.500;2022-12-11T07:54:12;6.68;;;4.03;;
35418;SDS011;21525;41.240;16.500;2022-12-11T07:56:43;5.80;;;3.10;;
35418;SDS011;21525;41.240;16.500;2022-12-11T07:59:11;5.88;;;3.45;;
35418;SDS011;21525;41.240;16.500;2022-12-11T08:01:37;6.05;;;3.30;;
35418;SDS011;21525;41.240;16.500;2022-12-11T08:04:04;6.25;;;3.85;;
35418;SDS011;21525;41.240;16.500;2022-12-11T08:08:59;8.55;;;3.08;;
35418;SDS011;21525;41.240;16.500;2022-12-11T08:11:27;135.88;;;119.45;;
35418;SDS011;21525;41.240;16.500;2022-12-11T08:13:53;149.63;;;137.48;;
35418;SDS011;21525;41.240;16.500;2022-12-11T08:16:20;1999.90;;;999.90;;
35418;SDS011;21525;41.240;16.500;2022-12-11T08:18:46;1154.25;;;794.30;;
35418;SDS011;21525;41.240;16.500;2022-12-11T08:21:22;1803.40;;;934.35;;
35418;SDS011;21525;41.240;16.500;2022-12-11T08:23:49;681.85;;;617.08;;
35418;SDS011;21525;41.240;16.500;2022-12-11T08:26:17;21.02;;;18.48;;
35418;SDS011;21525;41.240;16.500;2022-12-11T08:28:45;11.38;;;7.22;;
35418;SDS011;21525;41.240;16.500;2022-12-11T08:31:11;12.18;;;6.57;;
35418;SDS011;21525;41.240;16.500;2022-12-11T08:33:39;9.93;;;5.30;;
35418;SDS011;21525;41.240;16.500;2022-12-11T08:36:07;10.68;;;6.10;;
35418;SDS011;21525;41.240;16.500;2022-12-11T08:38:34;13.18;;;7.10;;
35418;SDS011;21525;41.240;16.500;2022-12-11T08:41:10;14.40;;;8.40;;
35418;SDS011;21525;41.240;16.500;2022-12-11T08:43:41;15.00;;;7.75;;
35418;SDS011;21525;41.240;16.500;2022-12-11T08:46:07;13.48;;;8.48;;
35418;SDS011;21525;41.240;16.500;2022-12-11T08:48:34;11.82;;;7.90;;
35418;SDS011;21525;41.240;16.500;2022-12-11T08:51:05;10.10;;;6.32;;
35418;SDS011;21525;41.240;16.500;2022-12-11T08:53:32;9.13;;;5.30;;
35418;SDS011;21525;41.240;16.500;2022-12-11T08:56:02;12.93;;;11.55;;
35418;SDS011;21525;41.240;16.500;2022-12-11T08:58:29;7.70;;;5.07;;
35418;SDS011;21525;41.240;16.500;2022-12-11T09:00:55;7.45;;;4.05;;
35418;SDS011;21525;41.240;16.500;2022-12-11T09:03:22;12.32;;;6.10;;
35418;SDS011;21525;41.240;16.500;2022-12-11T09:05:48;14.52;;;5.75;;
35418;SDS011;21525;41.240;16.500;2022-12-11T09:08:15;12.95;;;4.82;;
35418;SDS011;21525;41.240;16.500;2022-12-11T09:10:41;13.13;;;5.18;;
35418;SDS011;21525;41.240;16.500;2022-12-11T09:13:06;10.07;;;6.68;;
35418;SDS011;21525;41.240;16.500;2022-12-11T09:15:32;11.90;;;7.32;;
35418;SDS011;21525;41.240;16.500;2022-12-11T09:17:58;16.15;;;12.98;;
35418;SDS011;21525;41.240;16.500;2022-12-11T09:20:24;13.35;;;9.80;;
35418;SDS011;21525;41.240;16.500;2022-12-11T09:22:50;8.75;;;6.20;;
35418;SDS011;21525;41.240;16.500;2022-12-11T09:25:16;9.77;;;5.97;;
35418;SDS011;21525;41.240;16.500;2022-12-11T09:27:42;11.40;;;7.63;;
35418;SDS011;21525;41.240;16.500;2022-12-11T09:30:07;14.40;;;8.90;;
35418;SDS011;21525;41.240;16.500;2022-12-11T09:32:33;18.63;;;9.48;;
35418;SDS011;21525;41.240;16.500;2022-12-11T09:34:59;78.13;;;36.20;;
35418;SDS011;21525;41.240;16.500;2022-12-11T09:37:25;18.20;;;11.35;;
35418;SDS011;21525;41.240;16.500;2022-12-11T09:39:51;13.80;;;7.00;;
35418;SDS011;21525;41.240;16.500;2022-12-11T09:42:23;12.73;;;7.07;;
35418;SDS011;21525;41.240;16.500;2022-12-11T09:45:10;12.85;;;6.80;;
35418;SDS011;21525;41.240;16.500;2022-12-11T09:47:40;12.02;;;5.45;;
35418;SDS011;21525;41.240;16.500;2022-12-11T09:55:24;10.73;;;5.60;;
35418;SDS011;21525;41.240;16.500;2022-12-11T10:03:33;12.55;;;5.25;;
35418;SDS011;21525;41.240;16.500;2022-12-11T10:06:20;13.63;;;3.92;;
35418;SDS011;21525;41.240;16.500;2022-12-11T10:08:52;18.63;;;7.00;;
35418;SDS011;21525;41.240;16.500;2022-12-11T10:19:49;13.90;;;5.07;;
35418;SDS011;21525;41.240;16.500;2022-12-11T10:22:20;18.08;;;5.25;;
35418;SDS011;21525;41.240;16.500;2022-12-11T10:24:58;16.80;;;7.05;;
35418;SDS011;21525;41.240;16.500;2022-12-11T10:27:31;14.35;;;7.00;;
35418;SDS011;21525;41.240;16.500;2022-12-11T10:40:53;23.02;;;8.85;;
35418;SDS011;21525;41.240;16.500;2022-12-11T10:43:37;20.40;;;8.13;;
35418;SDS011;21525;41.240;16.500;2022-12-11T10:46:15;15.75;;;7.65;;
35418;SDS011;21525;41.240;16.500;2022-12-11T10:48:57;21.35;;;9.23;;
35418;SDS011;21525;41.240;16.500;2022-12-11T10:51:28;22.42;;;8.60;;
35418;SDS011;21525;41.240;16.500;2022-12-11T10:54:06;15.95;;;8.13;;
35418;SDS011;21525;41.240;16.500;2022-12-11T10:56:43;13.55;;;5.68;;
35418;SDS011;21525;41.240;16.500;2022-12-11T10:59:13;17.38;;;5.70;;
35418;SDS011;21525;41.240;16.500;2022-12-11T11:01:46;13.90;;;6.00;;
35418;SDS011;21525;41.240;16.500;2022-12-11T11:04:13;16.80;;;6.20;;
35418;SDS011;21525;41.240;16.500;2022-12-11T11:06:43;16.33;;;5.70;;
35418;SDS011;21525;41.240;16.500;2022-12-11T11:09:29;13.50;;;4.47;;
35418;SDS011;21525;41.240;16.500;2022-12-11T11:14:24;17.33;;;4.25;;
35418;SDS011;21525;41.240;16.500;2022-12-11T11:16:50;13.75;;;3.80;;
35418;SDS011;21525;41.240;16.500;2022-12-11T11:19:38;12.88;;;3.78;;
35418;SDS011;21525;41.240;16.500;2022-12-11T11:22:06;15.80;;;4.30;;
35418;SDS011;21525;41.240;16.500;2022-12-11T11:24:38;23.58;;;6.13;;
35418;SDS011;21525;41.240;16.500;2022-12-11T11:30:02;9.95;;;4.88;;
35418;SDS011;21525;41.240;16.500;2022-12-11T11:32:32;11.40;;;5.50;;
35418;SDS011;21525;41.240;16.500;2022-12-11T11:35:05;14.82;;;4.95;;
35418;SDS011;21525;41.240;16.500;2022-12-11T11:37:52;13.55;;;5.50;;
35418;SDS011;21525;41.240;16.500;2022-12-11T11:40:32;11.07;;;4.82;;
35418;SDS011;21525;41.240;16.500;2022-12-11T11:48:37;7.40;;;3.85;;
35418;SDS011;21525;41.240;16.500;2022-12-11T11:51:13;10.50;;;4.20;;
35418;SDS011;21525;41.240;16.500;2022-12-11T11:54:06;11.40;;;4.40;;
35418;SDS011;21525;41.240;16.500;2022-12-11T11:56:42;10.75;;;4.75;;
35418;SDS011;21525;41.240;16.500;2022-12-11T11:59:13;12.85;;;6.32;;
35418;SDS011;21525;41.240;16.500;2022-12-11T12:01:45;17.45;;;7.65;;
35418;SDS011;21525;41.240;16.500;2022-12-11T12:04:12;20.90;;;6.13;;
35418;SDS011;21525;41.240;16.500;2022-12-11T12:06:43;30.48;;;6.65;;
35418;SDS011;21525;41.240;16.500;2022-12-11T12:12:21;17.48;;;5.40;;
35418;SDS011;21525;41.240;16.500;2022-12-11T12:25:44;11.43;;;4.15;;
35418;SDS011;21525;41.240;16.500;2022-12-11T12:28:21;13.52;;;4.57;;
35418;SDS011;21525;41.240;16.500;2022-12-11T12:31:26;16.45;;;6.13;;
35418;SDS011;21525;41.240;16.500;2022-12-11T12:42:22;15.65;;;4.82;;
35418;SDS011;21525;41.240;16.500;2022-12-11T12:45:27;15.25;;;4.82;;
35418;SDS011;21525;41.240;16.500;2022-12-11T12:47:59;15.63;;;7.30;;
35418;SDS011;21525;41.240;16.500;2022-12-11T12:50:28;20.08;;;6.72;;
35418;SDS011;21525;41.240;16.500;2022-12-11T12:53:01;16.58;;;5.57;;
35418;SDS011;21525;41.240;16.500;2022-12-11T12:57:57;14.18;;;4.07;;
35418;SDS011;21525;41.240;16.500;2022-12-11T13:02:54;11.93;;;3.53;;
35418;SDS011;21525;41.240;16.500;2022-12-11T13:05:24;14.85;;;4.13;;
35418;SDS011;21525;41.240;16.500;2022-12-11T13:07:56;15.18;;;4.03;;
35418;SDS011;21525;41.240;16.500;2022-12-11T13:12:54;13.48;;;4.30;;
35418;SDS011;21525;41.240;16.500;2022-12-11T13:17:55;10.85;;;4.22;;
35418;SDS011;21525;41.240;16.500;2022-12-11T13:20:22;14.80;;;5.93;;
35418;SDS011;21525;41.240;16.500;2022-12-11T13:25:57;14.23;;;5.68;;
35418;SDS011;21525;41.240;16.500;2022-12-11T13:31:22;15.30;;;4.70;;
35418;SDS011;21525;41.240;16.500;2022-12-11T13:34:04;17.15;;;5.10;;
35418;SDS011;21525;41.240;16.500;2022-12-11T13:36:38;16.40;;;5.05;;
35418;SDS011;21525;41.240;16.500;2022-12-11T13:39:07;15.57;;;5.15;;
35418;SDS011;21525;41.240;16.500;2022-12-11T13:41:48;14.07;;;6.00;;
35418;SDS011;21525;41.240;16.500;2022-12-11T13:44:22;19.67;;;6.90;;
35418;SDS011;21525;41.240;16.500;2022-12-11T13:46:51;23.88;;;8.80;;
35418;SDS011;21525;41.240;16.500;2022-12-11T13:49:21;17.40;;;7.20;;
35418;SDS011;21525;41.240;16.500;2022-12-11T13:52:18;25.20;;;7.57;;
35418;SDS011;21525;41.240;16.500;2022-12-11T13:54:47;21.00;;;7.63;;
35418;SDS011;21525;41.240;16.500;2022-12-11T13:57:16;21.27;;;6.43;;
35418;SDS011;21525;41.240;16.500;2022-12-11T13:59:47;16.63;;;5.63;;
35418;SDS011;21525;41.240;16.500;2022-12-11T14:04:53;12.55;;;4.55;;
35418;SDS011;21525;41.240;16.500;2022-12-11T14:07:26;11.13;;;4.47;;
35418;SDS011;21525;41.240;16.500;2022-12-11T14:09:58;15.90;;;4.85;;
35418;SDS011;21525;41.240;16.500;2022-12-11T14:12:27;17.40;;;4.85;;
35418;SDS011;21525;41.240;16.500;2022-12-11T14:14:55;14.60;;;4.05;;
35418;SDS011;21525;41.240;16.500;2022-12-11T14:17:25;11.40;;;4.10;;
35418;SDS011;21525;41.240;16.500;2022-12-11T14:19:52;11.02;;;3.28;;
35418;SDS011;21525;41.240;16.500;2022-12-11T14:22:24;14.90;;;4.45;;
35418;SDS011;21525;41.240;16.500;2022-12-11T14:24:52;13.93;;;3.63;;
35418;SDS011;21525;41.240;16.500;2022-12-11T14:29:47;11.82;;;3.30;;
35418;SDS011;21525;41.240;16.500;2022-12-11T14:32:23;12.50;;;3.95;;
35418;SDS011;21525;41.240;16.500;2022-12-11T14:34:59;9.57;;;3.55;;
35418;SDS011;21525;41.240;16.500;2022-12-11T14:37:29;13.57;;;4.45;;
35418;SDS011;21525;41.240;16.500;2022-12-11T14:40:00;13.18;;;3.80;;
35418;SDS011;21525;41.240;16.500;2022-12-11T14:42:38;12.35;;;3.72;;
35418;SDS011;21525;41.240;16.500;2022-12-11T14:47:47;14.45;;;3.78;;
35418;SDS011;21525;41.240;16.500;2022-12-11T14:50:20;11.93;;;3.65;;
35418;SDS011;21525;41.240;16.500;2022-12-11T14:52:52;11.57;;;4.43;;
35418;SDS011;21525;41.240;16.500;2022-12-11T14:55:25;14.23;;;4.25;;
35418;SDS011;21525;41.240;16.500;2022-12-11T14:57:55;13.75;;;4.90;;
35418;SDS011;21525;41.240;16.500;2022-12-11T15:03:00;13.30;;;4.45;;
35418;SDS011;21525;41.240;16.500;2022-12-11T15:05:29;19.73;;;4.47;;
35418;SDS011;21525;41.240;16.500;2022-12-11T15:07:58;12.38;;;4.28;;
35418;SDS011;21525;41.240;16.500;2022-12-11T15:10:32;10.02;;;3.55;;
35418;SDS011;21525;41.240;16.500;2022-12-11T15:13:03;19.13;;;4.55;;
35418;SDS011;21525;41.240;16.500;2022-12-11T15:15:31;11.50;;;3.85;;
35418;SDS011;21525;41.240;16.500;2022-12-11T15:18:03;13.60;;;4.07;;
35418;SDS011;21525;41.240;16.500;2022-12-11T15:20:38;17.25;;;4.20;;
35418;SDS011;21525;41.240;16.500;2022-12-11T15:23:05;11.60;;;3.80;;
35418;SDS011;21525;41.240;16.500;2022-12-11T15:25:32;13.77;;;4.22;;
35418;SDS011;21525;41.240;16.500;2022-12-11T15:27:59;24.30;;;7.80;;
35418;SDS011;21525;41.240;16.500;2022-12-11T15:30:27;15.70;;;4.03;;
35418;SDS011;21525;41.240;16.500;2022-12-11T15:33:27;9.52;;;3.47;;
35418;SDS011;21525;41.240;16.500;2022-12-11T15:38:31;14.43;;;4.10;;
35418;SDS011;21525;41.240;16.500;2022-12-11T15:41:04;13.10;;;3.40;;
35418;SDS011;21525;41.240;16.500;2022-12-11T15:43:35;15.95;;;3.63;;
35418;SDS011;21525;41.240;16.500;2022-12-11T15:46:02;11.60;;;3.45;;
35418;SDS011;21525;41.240;16.500;2022-12-11T15:48:29;15.98;;;3.70;;
35418;SDS011;21525;41.240;16.500;2022-12-11T15:50:55;15.73;;;4.97;;
35418;SDS011;21525;41.240;16.500;2022-12-11T15:53:21;15.43;;;6.57;;
35418;SDS011;21525;41.240;16.500;2022-12-11T15:55:47;18.40;;;6.18;;
35418;SDS011;21525;41.240;16.500;2022-12-11T15:58:17;12.73;;;5.10;;
35418;SDS011;21525;41.240;16.500;2022-12-11T16:00:45;11.18;;;4.57;;
35418;SDS011;21525;41.240;16.500;2022-12-11T16:03:14;17.33;;;5.30;;
35418;SDS011;21525;41.240;16.500;2022-12-11T16:05:42;14.38;;;4.63;;
35418;SDS011;21525;41.240;16.500;2022-12-11T16:08:11;10.68;;;3.88;;
35418;SDS011;21525;41.240;16.500;2022-12-11T16:10:42;14.60;;;3.63;;
35418;SDS011;21525;41.240;16.500;2022-12-11T16:13:09;9.57;;;3.42;;
35418;SDS011;21525;41.240;16.500;2022-12-11T16:15:36;9.02;;;2.78;;
35418;SDS011;21525;41.240;16.500;2022-12-11T16:18:05;11.15;;;2.45;;
35418;SDS011;21525;41.240;16.500;2022-12-11T16:20:33;11.10;;;3.25;;
35418;SDS011;21525;41.240;16.500;2022-12-11T16:23:00;14.93;;;3.75;;
35418;SDS011;21525;41.240;16.500;2022-12-11T16:25:26;13.73;;;3.22;;
35418;SDS011;21525;41.240;16.500;2022-12-11T16:27:55;8.25;;;2.60;;
35418;SDS011;21525;41.240;16.500;2022-12-11T16:30:22;16.05;;;2.95;;
35418;SDS011;21525;41.240;16.500;2022-12-11T16:32:49;12.35;;;2.80;;
35418;SDS011;21525;41.240;16.500;2022-12-11T16:35:16;10.15;;;2.63;;